createdAt,value
2018-07-03T00:00:40.590Z,930.81
2018-07-03T00:01:40.540Z,930.86
2018-07-03T00:02:40.765Z,930.85
2018-07-03T00:03:40.454Z,930.85
2018-07-03T00:04:40.446Z,930.83
2018-07-03T00:05:40.373Z,930.90
2018-07-03T00:06:40.348Z,930.91
2018-07-03T00:07:40.277Z,930.99
2018-07-03T00:08:40.487Z,930.99
2018-07-03T00:09:40.199Z,931.04
2018-07-03T00:10:40.165Z,931.06
2018-07-03T00:11:40.087Z,931.03
2018-07-03T00:12:40.053Z,931.04
2018-07-03T00:13:40.032Z,931.01
2018-07-03T00:14:40.209Z,931.10
2018-07-03T00:15:39.915Z,931.07
2018-07-03T00:16:39.876Z,931.08
2018-07-03T00:17:39.833Z,931.06
2018-07-03T00:18:39.782Z,931.10
2018-07-03T00:19:39.767Z,931.08
2018-07-03T00:20:39.969Z,931.13
2018-07-03T00:21:39.658Z,931.12
2018-07-03T00:22:39.610Z,931.08
2018-07-03T00:23:39.571Z,931.10
2018-07-03T00:24:39.530Z,931.08
2018-07-03T00:25:39.468Z,931.11
2018-07-03T00:26:39.663Z,931.10
2018-07-03T00:27:39.401Z,931.10
2018-07-03T00:28:39.353Z,931.11
2018-07-03T00:29:39.289Z,931.14
2018-07-03T00:30:39.247Z,931.12
2018-07-03T00:31:39.207Z,931.14
2018-07-03T00:32:39.410Z,931.14
2018-07-03T00:33:39.114Z,931.16
2018-07-03T00:34:39.068Z,931.13
2018-07-03T00:35:39.038Z,931.13
2018-07-03T00:36:38.981Z,931.12
2018-07-03T00:37:38.928Z,931.08
2018-07-03T00:38:39.147Z,931.13
2018-07-03T00:39:38.831Z,931.11
2018-07-03T00:40:38.801Z,931.08
2018-07-03T00:41:38.767Z,931.08
2018-07-03T00:42:38.698Z,931.08
2018-07-03T00:43:38.688Z,931.09
2018-07-03T00:44:38.852Z,931.08
2018-07-03T00:45:38.575Z,931.04
2018-07-03T00:46:38.526Z,931.09
2018-07-03T00:47:38.465Z,931.05
2018-07-03T00:48:38.431Z,931.09
2018-07-03T00:49:38.387Z,931.07
2018-07-03T00:50:38.592Z,931.11
2018-07-03T00:51:38.292Z,931.12
2018-07-03T00:52:38.238Z,931.18
2018-07-03T00:53:38.190Z,931.13
2018-07-03T00:54:38.168Z,931.17
2018-07-03T00:55:38.100Z,931.16
2018-07-03T00:56:38.326Z,931.19
2018-07-03T00:57:38.025Z,931.14
2018-07-03T00:58:37.967Z,931.18
2018-07-03T00:59:37.930Z,931.18
2018-07-03T01:00:37.876Z,931.20
2018-07-03T01:01:37.836Z,931.23
2018-07-03T01:02:38.062Z,931.18
2018-07-03T01:03:37.748Z,931.20
2018-07-03T01:04:37.725Z,931.24
2018-07-03T01:05:37.665Z,931.20
2018-07-03T01:06:37.604Z,931.23
2018-07-03T01:07:37.571Z,931.25
2018-07-03T01:08:37.770Z,931.26
2018-07-03T01:09:37.471Z,931.26
2018-07-03T01:10:37.449Z,931.25
2018-07-03T01:11:37.378Z,931.24
2018-07-03T01:12:37.370Z,931.24
2018-07-03T01:13:37.287Z,931.26
2018-07-03T01:14:37.543Z,931.25
2018-07-03T01:15:37.203Z,931.29
2018-07-03T01:16:37.167Z,931.29
2018-07-03T01:17:37.112Z,931.28
2018-07-03T01:18:37.076Z,931.28
2018-07-03T01:19:37.023Z,931.30
2018-07-03T01:20:37.252Z,931.31
2018-07-03T01:21:36.930Z,931.34
2018-07-03T01:22:36.910Z,931.33
2018-07-03T01:23:36.849Z,931.34
2018-07-03T01:24:36.832Z,931.33
2018-07-03T01:25:36.760Z,931.31
2018-07-03T01:26:36.987Z,931.29
2018-07-03T01:27:36.665Z,931.30
2018-07-03T01:28:36.632Z,931.26
2018-07-03T01:29:36.571Z,931.24
2018-07-03T01:30:36.528Z,931.26
2018-07-03T01:31:36.495Z,931.24
2018-07-03T01:32:36.708Z,931.24
2018-07-03T01:33:36.395Z,931.25
2018-07-03T01:34:36.356Z,931.26
2018-07-03T01:35:36.306Z,931.25
2018-07-03T01:36:36.260Z,931.22
2018-07-03T01:37:36.230Z,931.28
2018-07-03T01:38:36.435Z,931.25
2018-07-03T01:39:36.117Z,931.23
2018-07-03T01:40:36.064Z,931.27
2018-07-03T01:41:36.038Z,931.26
2018-07-03T01:42:35.973Z,931.22
2018-07-03T01:43:35.968Z,931.26
2018-07-03T01:44:36.152Z,931.24
2018-07-03T01:45:35.867Z,931.25
2018-07-03T01:46:35.791Z,931.29
2018-07-03T01:47:35.763Z,931.25
2018-07-03T01:48:35.713Z,931.31
2018-07-03T01:49:35.662Z,931.28
2018-07-03T01:50:35.868Z,931.26
2018-07-03T01:51:35.568Z,931.30
2018-07-03T01:52:35.534Z,931.29
2018-07-03T01:53:35.480Z,931.30
2018-07-03T01:54:35.442Z,931.29
2018-07-03T01:55:35.389Z,931.29
2018-07-03T01:56:35.607Z,931.28
2018-07-03T01:57:35.302Z,931.28
2018-07-03T01:58:35.274Z,931.29
2018-07-03T01:59:35.205Z,931.31
2018-07-03T02:00:35.174Z,931.24
2018-07-03T02:01:35.127Z,931.29
2018-07-03T02:02:35.341Z,931.29
2018-07-03T02:03:35.042Z,931.25
2018-07-03T02:04:34.999Z,931.28
2018-07-03T02:05:34.964Z,931.26
2018-07-03T02:06:34.884Z,931.22
2018-07-03T02:07:34.841Z,931.23
2018-07-03T02:08:35.041Z,931.20
2018-07-03T02:09:34.775Z,931.21
2018-07-03T02:10:34.718Z,931.21
2018-07-03T02:11:34.659Z,931.24
2018-07-03T02:12:34.620Z,931.17
2018-07-03T02:13:34.584Z,931.22
2018-07-03T02:14:34.795Z,931.23
2018-07-03T02:15:34.477Z,931.20
2018-07-03T02:16:34.446Z,931.20
2018-07-03T02:17:34.406Z,931.20
2018-07-03T02:18:34.340Z,931.20
2018-07-03T02:19:34.295Z,931.19
2018-07-03T02:20:34.507Z,931.24
2018-07-03T02:21:34.212Z,931.22
2018-07-03T02:22:34.166Z,931.27
2018-07-03T02:23:34.114Z,931.20
2018-07-03T02:24:34.089Z,931.20
2018-07-03T02:25:34.043Z,931.18
2018-07-03T02:26:34.253Z,931.18
2018-07-03T02:27:33.930Z,931.23
2018-07-03T02:28:33.876Z,931.20
2018-07-03T02:29:33.871Z,931.25
2018-07-03T02:30:33.789Z,931.18
2018-07-03T02:31:33.761Z,931.18
2018-07-03T02:32:33.966Z,931.16
2018-07-03T02:33:33.668Z,931.17
2018-07-03T02:34:33.604Z,931.15
2018-07-03T02:35:33.571Z,931.19
2018-07-03T02:36:33.546Z,931.24
2018-07-03T02:37:33.481Z,931.22
2018-07-03T02:38:33.693Z,931.18
2018-07-03T02:39:33.383Z,931.21
2018-07-03T02:40:33.358Z,931.22
2018-07-03T02:41:33.319Z,931.24
2018-07-03T02:42:33.285Z,931.26
2018-07-03T02:43:33.212Z,931.23
2018-07-03T02:44:33.413Z,931.23
2018-07-03T02:45:33.136Z,931.24
2018-07-03T02:46:33.093Z,931.22
2018-07-03T02:47:33.045Z,931.22
2018-07-03T02:48:32.989Z,931.24
2018-07-03T02:49:32.921Z,931.18
2018-07-03T02:50:33.140Z,931.20
2018-07-03T02:51:32.860Z,931.17
2018-07-03T02:52:32.817Z,931.17
2018-07-03T02:53:32.742Z,931.18
2018-07-03T02:54:32.726Z,931.18
2018-07-03T02:55:32.654Z,931.24
2018-07-03T02:56:32.880Z,931.23
2018-07-03T02:57:32.589Z,931.24
2018-07-03T02:58:32.543Z,931.22
2018-07-03T02:59:32.479Z,931.26
2018-07-03T03:00:32.432Z,931.25
2018-07-03T03:01:32.406Z,931.22
2018-07-03T03:02:32.595Z,931.20
2018-07-03T03:03:32.305Z,931.18
2018-07-03T03:04:32.244Z,931.17
2018-07-03T03:05:32.205Z,931.20
2018-07-03T03:06:32.181Z,931.24
2018-07-03T03:07:32.133Z,931.18
2018-07-03T03:08:32.321Z,931.16
2018-07-03T03:09:32.040Z,931.16
2018-07-03T03:10:31.965Z,931.20
2018-07-03T03:11:31.926Z,931.13
2018-07-03T03:12:31.892Z,931.17
2018-07-03T03:13:31.840Z,931.17
2018-07-03T03:14:32.040Z,931.17
2018-07-03T03:15:31.764Z,931.13
2018-07-03T03:16:31.695Z,931.13
2018-07-03T03:17:31.664Z,931.19
2018-07-03T03:18:31.609Z,931.15
2018-07-03T03:19:31.570Z,931.17
2018-07-03T03:20:31.760Z,931.15
2018-07-03T03:21:31.489Z,931.17
2018-07-03T03:22:31.464Z,931.17
2018-07-03T03:23:31.387Z,931.16
2018-07-03T03:24:31.325Z,931.18
2018-07-03T03:25:31.299Z,931.19
2018-07-03T03:26:31.515Z,931.17
2018-07-03T03:27:31.213Z,931.22
2018-07-03T03:28:31.169Z,931.22
2018-07-03T03:29:31.124Z,931.23
2018-07-03T03:30:31.090Z,931.26
2018-07-03T03:31:31.047Z,931.27
2018-07-03T03:32:31.226Z,931.20
2018-07-03T03:33:30.929Z,931.24
2018-07-03T03:34:30.883Z,931.18
2018-07-03T03:35:30.828Z,931.21
2018-07-03T03:36:30.792Z,931.29
2018-07-03T03:37:30.727Z,931.31
2018-07-03T03:38:30.968Z,931.31
2018-07-03T03:39:30.651Z,931.31
2018-07-03T03:40:30.608Z,931.29
2018-07-03T03:41:30.551Z,931.33
2018-07-03T03:42:30.530Z,931.33
2018-07-03T03:43:30.467Z,931.33
2018-07-03T03:44:30.673Z,931.36
2018-07-03T03:45:30.370Z,931.35
2018-07-03T03:46:30.339Z,931.34
2018-07-03T03:47:30.279Z,931.38
2018-07-03T03:48:30.236Z,931.38
2018-07-03T03:49:30.194Z,931.36
2018-07-03T03:50:30.391Z,931.35
2018-07-03T03:51:30.117Z,931.37
2018-07-03T03:52:30.046Z,931.35
2018-07-03T03:53:30.016Z,931.35
2018-07-03T03:54:29.973Z,931.37
2018-07-03T03:55:29.912Z,931.36
2018-07-03T03:56:30.149Z,931.35
2018-07-03T03:57:29.827Z,931.31
2018-07-03T03:58:29.770Z,931.33
2018-07-03T03:59:29.744Z,931.37
2018-07-03T04:00:29.684Z,931.33
2018-07-03T04:01:29.658Z,931.33
2018-07-03T04:02:29.852Z,931.34
2018-07-03T04:03:29.575Z,931.32
2018-07-03T04:04:29.507Z,931.33
2018-07-03T04:05:29.470Z,931.37
2018-07-03T04:06:29.446Z,931.39
2018-07-03T04:07:29.359Z,931.35
2018-07-03T04:08:29.567Z,931.35
2018-07-03T04:09:29.297Z,931.33
2018-07-03T04:10:29.230Z,931.29
2018-07-03T04:11:29.194Z,931.29
2018-07-03T04:12:29.135Z,931.30
2018-07-03T04:13:29.089Z,931.32
2018-07-03T04:14:29.315Z,931.29
2018-07-03T04:15:29.034Z,931.28
2018-07-03T04:16:28.965Z,931.32
2018-07-03T04:17:28.902Z,931.33
2018-07-03T04:18:28.876Z,931.32
2018-07-03T04:19:28.835Z,931.33
2018-07-03T04:20:29.017Z,931.34
2018-07-03T04:21:28.718Z,931.32
2018-07-03T04:22:28.681Z,931.34
2018-07-03T04:23:28.627Z,931.31
2018-07-03T04:24:28.612Z,931.28
2018-07-03T04:25:28.563Z,931.28
2018-07-03T04:26:28.769Z,931.25
2018-07-03T04:27:28.464Z,931.23
2018-07-03T04:28:28.422Z,931.29
2018-07-03T04:29:28.394Z,931.23
2018-07-03T04:30:28.336Z,931.22
2018-07-03T04:31:28.264Z,931.21
2018-07-03T04:32:28.479Z,931.16
2018-07-03T04:33:28.172Z,931.21
2018-07-03T04:34:28.128Z,931.16
2018-07-03T04:35:28.070Z,931.09
2018-07-03T04:36:28.064Z,931.15
2018-07-03T04:37:28.005Z,931.16
2018-07-03T04:38:28.195Z,931.17
2018-07-03T04:39:27.922Z,931.18
2018-07-03T04:40:27.889Z,931.17
2018-07-03T04:41:27.874Z,931.13
2018-07-03T04:42:27.801Z,931.15
2018-07-03T04:43:27.750Z,931.16
2018-07-03T04:44:27.939Z,931.11
2018-07-03T04:45:27.631Z,931.11
2018-07-03T04:46:27.580Z,931.10
2018-07-03T04:47:27.530Z,931.10
2018-07-03T04:48:27.493Z,931.09
2018-07-03T04:49:27.477Z,931.12
2018-07-03T04:50:27.667Z,931.10
2018-07-03T04:51:27.347Z,931.05
2018-07-03T04:52:27.334Z,931.01
2018-07-03T04:53:27.349Z,931.03
2018-07-03T04:54:27.223Z,931.01
2018-07-03T04:55:27.160Z,931.01
2018-07-03T04:56:27.367Z,930.98
2018-07-03T04:57:27.073Z,931.02
2018-07-03T04:58:27.034Z,930.97
2018-07-03T04:59:27.006Z,930.98
2018-07-03T05:00:26.943Z,930.95
2018-07-03T05:01:26.899Z,930.97
2018-07-03T05:02:27.122Z,930.97
2018-07-03T05:03:26.809Z,930.98
2018-07-03T05:04:26.751Z,930.96
2018-07-03T05:05:26.716Z,930.97
2018-07-03T05:06:26.665Z,931.00
2018-07-03T05:07:26.627Z,931.00
2018-07-03T05:08:26.833Z,930.96
2018-07-03T05:09:26.542Z,930.94
2018-07-03T05:10:26.488Z,930.97
2018-07-03T05:11:26.445Z,930.94
2018-07-03T05:12:26.390Z,930.97
2018-07-03T05:13:26.340Z,930.98
2018-07-03T05:14:26.550Z,930.98
2018-07-03T05:15:26.266Z,930.99
2018-07-03T05:16:26.191Z,930.99
2018-07-03T05:17:26.237Z,931.00
2018-07-03T05:18:26.134Z,931.03
2018-07-03T05:19:26.066Z,931.04
2018-07-03T05:20:26.283Z,931.00
2018-07-03T05:21:25.985Z,931.00
2018-07-03T05:22:25.925Z,930.96
2018-07-03T05:23:25.892Z,931.00
2018-07-03T05:24:25.845Z,930.96
2018-07-03T05:25:25.798Z,930.96
2018-07-03T05:26:26.014Z,930.99
2018-07-03T05:27:25.693Z,930.98
2018-07-03T05:28:25.664Z,931.00
2018-07-03T05:29:25.613Z,930.97
2018-07-03T05:30:25.567Z,931.01
2018-07-03T05:31:25.534Z,930.97
2018-07-03T05:32:25.717Z,930.98
2018-07-03T05:33:25.427Z,931.01
2018-07-03T05:34:25.385Z,930.99
2018-07-03T05:35:25.356Z,930.97
2018-07-03T05:36:25.292Z,930.98
2018-07-03T05:37:25.496Z,930.99
2018-07-03T05:38:25.198Z,930.98
2018-07-03T05:39:25.162Z,930.99
2018-07-03T05:40:25.221Z,930.98
2018-07-03T05:41:25.271Z,930.97
2018-07-03T05:42:25.166Z,930.93
2018-07-03T05:43:25.220Z,930.89
2018-07-03T05:44:24.937Z,930.86
2018-07-03T05:45:24.881Z,930.85
2018-07-03T05:46:24.819Z,930.86
2018-07-03T05:47:24.780Z,930.93
2018-07-03T05:48:24.739Z,930.89
2018-07-03T05:49:24.948Z,930.90
2018-07-03T05:50:24.657Z,930.88
2018-07-03T05:51:24.604Z,930.86
2018-07-03T05:52:24.549Z,930.87
2018-07-03T05:53:24.521Z,930.88
2018-07-03T05:54:24.471Z,930.89
2018-07-03T05:55:24.660Z,930.86
2018-07-03T05:56:24.434Z,930.89
2018-07-03T05:57:24.314Z,930.91
2018-07-03T05:58:24.283Z,930.87
2018-07-03T05:59:24.234Z,930.87
2018-07-03T06:00:24.452Z,930.89
2018-07-03T06:01:24.142Z,930.87
2018-07-03T06:02:24.104Z,930.89
2018-07-03T06:03:24.059Z,930.91
2018-07-03T06:04:23.997Z,930.94
2018-07-03T06:05:23.954Z,930.92
2018-07-03T06:06:24.178Z,930.93
2018-07-03T06:07:23.892Z,930.93
2018-07-03T06:08:23.808Z,930.91
2018-07-03T06:09:23.769Z,930.92
2018-07-03T06:10:23.723Z,930.91
2018-07-03T06:11:23.671Z,930.93
2018-07-03T06:12:23.880Z,930.95
2018-07-03T06:13:23.581Z,930.94
2018-07-03T06:14:23.553Z,930.94
2018-07-03T06:15:23.518Z,930.97
2018-07-03T06:16:23.478Z,930.96
2018-07-03T06:17:23.421Z,930.95
2018-07-03T06:18:23.607Z,930.93
2018-07-03T06:19:23.318Z,930.97
2018-07-03T06:20:23.258Z,930.97
2018-07-03T06:21:23.236Z,930.97
2018-07-03T06:22:23.165Z,930.95
2018-07-03T06:23:23.125Z,930.95
2018-07-03T06:24:23.338Z,930.97
2018-07-03T06:25:23.192Z,930.94
2018-07-03T06:26:23.017Z,930.96
2018-07-03T06:27:22.954Z,930.95
2018-07-03T06:28:22.901Z,930.95
2018-07-03T06:29:22.868Z,930.94
2018-07-03T06:30:23.065Z,930.96
2018-07-03T06:31:22.757Z,930.96
2018-07-03T06:32:22.710Z,930.97
2018-07-03T06:33:22.667Z,930.98
2018-07-03T06:34:22.619Z,931.03
2018-07-03T06:35:22.578Z,930.98
2018-07-03T06:36:22.803Z,930.94
2018-07-03T06:37:22.557Z,930.95
2018-07-03T06:38:22.430Z,930.99
2018-07-03T06:39:22.402Z,930.95
2018-07-03T06:40:22.338Z,930.96
2018-07-03T06:41:22.304Z,930.90
2018-07-03T06:42:22.512Z,930.98
2018-07-03T06:43:22.215Z,930.98
2018-07-03T06:44:22.168Z,930.95
2018-07-03T06:45:22.107Z,930.91
2018-07-03T06:46:22.060Z,930.91
2018-07-03T06:47:22.109Z,930.90
2018-07-03T06:48:22.089Z,930.90
2018-07-03T06:49:21.966Z,930.89
2018-07-03T06:50:21.886Z,930.91
2018-07-03T06:51:21.843Z,930.90
2018-07-03T06:52:21.802Z,930.92
2018-07-03T06:53:21.770Z,930.94
2018-07-03T06:54:21.867Z,930.89
2018-07-03T06:55:21.651Z,930.92
2018-07-03T06:56:21.612Z,930.90
2018-07-03T06:57:21.568Z,930.89
2018-07-03T06:58:21.519Z,930.90
2018-07-03T06:59:21.468Z,930.91
2018-07-03T07:00:21.446Z,930.91
2018-07-03T07:01:21.381Z,930.94
2018-07-03T07:02:21.328Z,930.93
2018-07-03T07:03:21.309Z,930.94
2018-07-03T07:04:21.235Z,930.94
2018-07-03T07:05:21.203Z,930.94
2018-07-03T07:06:21.157Z,930.90
2018-07-03T07:07:21.111Z,930.90
2018-07-03T07:08:21.055Z,930.92
2018-07-03T07:09:21.098Z,930.91
2018-07-03T07:10:20.967Z,930.94
2018-07-03T07:11:20.913Z,930.91
2018-07-03T07:12:20.875Z,930.92
2018-07-03T07:13:20.848Z,930.97
2018-07-03T07:14:20.781Z,931.00
2018-07-03T07:15:20.741Z,930.97
2018-07-03T07:16:20.697Z,931.00
2018-07-03T07:17:20.657Z,931.01
2018-07-03T07:18:20.590Z,931.00
2018-07-03T07:19:20.559Z,930.97
2018-07-03T07:20:20.510Z,931.00
2018-07-03T07:21:20.474Z,930.95
2018-07-03T07:22:20.442Z,930.98
2018-07-03T07:23:20.396Z,930.93
2018-07-03T07:24:20.326Z,931.00
2018-07-03T07:25:20.262Z,930.99
2018-07-03T07:26:20.215Z,930.99
2018-07-03T07:27:20.177Z,931.03
2018-07-03T07:28:20.128Z,931.05
2018-07-03T07:29:20.101Z,931.06
2018-07-03T07:30:20.035Z,931.07
2018-07-03T07:31:20.008Z,931.09
2018-07-03T07:32:19.969Z,931.09
2018-07-03T07:33:19.893Z,931.12
2018-07-03T07:34:19.865Z,931.13
2018-07-03T07:35:19.820Z,931.13
2018-07-03T07:36:19.753Z,931.13
2018-07-03T07:37:19.708Z,931.10
2018-07-03T07:38:19.680Z,931.14
2018-07-03T07:39:19.640Z,931.10
2018-07-03T07:40:19.619Z,931.14
2018-07-03T07:41:19.533Z,931.15
2018-07-03T07:42:19.481Z,931.16
2018-07-03T07:43:19.446Z,931.21
2018-07-03T07:44:19.420Z,931.19
2018-07-03T07:45:19.363Z,931.23
2018-07-03T07:46:19.321Z,931.26
2018-07-03T07:47:19.263Z,931.25
2018-07-03T07:48:19.199Z,931.25
2018-07-03T07:49:19.168Z,931.27
2018-07-03T07:50:19.166Z,931.24
2018-07-03T07:51:19.065Z,931.24
2018-07-03T07:52:19.023Z,931.30
2018-07-03T07:53:18.972Z,931.30
2018-07-03T07:54:18.951Z,931.27
2018-07-03T07:55:18.877Z,931.24
2018-07-03T07:56:18.845Z,931.24
2018-07-03T07:57:18.781Z,931.23
2018-07-03T07:58:18.765Z,931.22
2018-07-03T07:59:18.692Z,931.23
2018-07-03T08:00:18.667Z,931.26
2018-07-03T08:01:18.601Z,931.28
2018-07-03T08:02:18.551Z,931.27
2018-07-03T08:03:18.519Z,931.29
2018-07-03T08:04:18.470Z,931.30
2018-07-03T08:05:18.426Z,931.29
2018-07-03T08:06:18.378Z,931.28
2018-07-03T08:07:18.335Z,931.28
2018-07-03T08:08:18.274Z,931.30
2018-07-03T08:09:18.226Z,931.32
2018-07-03T08:10:18.185Z,931.30
2018-07-03T08:11:18.152Z,931.34
2018-07-03T08:12:18.105Z,931.32
2018-07-03T08:13:18.092Z,931.32
2018-07-03T08:14:18.014Z,931.35
2018-07-03T08:15:17.959Z,931.36
2018-07-03T08:16:17.915Z,931.34
2018-07-03T08:17:17.863Z,931.37
2018-07-03T08:18:17.818Z,931.38
2018-07-03T08:19:17.777Z,931.39
2018-07-03T08:20:17.731Z,931.41
2018-07-03T08:21:17.674Z,931.38
2018-07-03T08:22:17.620Z,931.44
2018-07-03T08:23:17.575Z,931.42
2018-07-03T08:24:17.539Z,931.42
2018-07-03T08:25:17.504Z,931.46
2018-07-03T08:26:17.452Z,931.45
2018-07-03T08:27:17.420Z,931.45
2018-07-03T08:28:17.371Z,931.47
2018-07-03T08:29:17.305Z,931.51
2018-07-03T08:30:17.255Z,931.50
2018-07-03T08:31:17.236Z,931.46
2018-07-03T08:32:17.190Z,931.52
2018-07-03T08:33:17.135Z,931.49
2018-07-03T08:34:17.086Z,931.50
2018-07-03T08:35:17.030Z,931.51
2018-07-03T08:36:16.991Z,931.52
2018-07-03T08:37:16.933Z,931.54
2018-07-03T08:38:16.907Z,931.53
2018-07-03T08:39:16.835Z,931.56
2018-07-03T08:40:16.801Z,931.56
2018-07-03T08:41:16.781Z,931.54
2018-07-03T08:42:16.698Z,931.59
2018-07-03T08:43:16.666Z,931.57
2018-07-03T08:44:16.637Z,931.59
2018-07-03T08:45:16.577Z,931.62
2018-07-03T08:46:16.542Z,931.64
2018-07-03T08:47:16.480Z,931.64
2018-07-03T08:48:16.419Z,931.66
2018-07-03T08:49:16.386Z,931.66
2018-07-03T08:50:16.357Z,931.66
2018-07-03T08:51:16.285Z,931.66
2018-07-03T08:52:16.251Z,931.65
2018-07-03T08:53:16.189Z,931.67
2018-07-03T08:54:16.166Z,931.67
2018-07-03T08:55:16.093Z,931.68
2018-07-03T08:56:16.051Z,931.67
2018-07-03T08:57:16.016Z,931.70
2018-07-03T08:58:16.027Z,931.69
2018-07-03T08:59:15.936Z,931.69
2018-07-03T09:00:15.876Z,931.65
2018-07-03T09:01:15.831Z,931.68
2018-07-03T09:02:15.766Z,931.69
2018-07-03T09:03:15.752Z,931.72
2018-07-03T09:04:15.694Z,931.70
2018-07-03T09:05:15.637Z,931.69
2018-07-03T09:06:15.591Z,931.73
2018-07-03T09:07:15.559Z,931.69
2018-07-03T09:08:15.505Z,931.72
2018-07-03T09:09:15.460Z,931.77
2018-07-03T09:10:15.407Z,931.82
2018-07-03T09:11:15.363Z,931.85
2018-07-03T09:12:15.313Z,931.86
2018-07-03T09:13:15.808Z,931.83
2018-07-03T09:14:15.216Z,931.80
2018-07-03T09:15:15.180Z,931.82
2018-07-03T09:16:15.152Z,931.90
2018-07-03T09:17:15.101Z,931.89
2018-07-03T09:18:15.065Z,931.87
2018-07-03T09:19:15.010Z,931.87
2018-07-03T09:20:14.936Z,931.87
2018-07-03T09:21:14.907Z,931.87
2018-07-03T09:22:14.860Z,931.89
2018-07-03T09:23:14.801Z,931.90
2018-07-03T09:24:14.774Z,931.90
2018-07-03T09:25:14.714Z,931.92
2018-07-03T09:26:14.675Z,931.89
2018-07-03T09:27:14.615Z,931.90
2018-07-03T09:28:14.591Z,931.87
2018-07-03T09:29:14.550Z,931.88
2018-07-03T09:30:14.503Z,931.86
2018-07-03T09:31:14.429Z,931.88
2018-07-03T09:32:14.385Z,931.91
2018-07-03T09:33:14.350Z,931.93
2018-07-03T09:34:14.290Z,931.91
2018-07-03T09:35:14.240Z,931.94
2018-07-03T09:36:14.218Z,931.94
2018-07-03T09:37:14.160Z,931.99
2018-07-03T09:38:14.121Z,932.00
2018-07-03T09:39:14.057Z,932.05
2018-07-03T09:40:14.023Z,932.04
2018-07-03T09:41:13.978Z,932.04
2018-07-03T09:42:13.943Z,932.12
2018-07-03T09:43:13.883Z,932.10
2018-07-03T09:44:13.827Z,932.12
2018-07-03T09:45:13.796Z,932.11
2018-07-03T09:46:13.734Z,932.13
2018-07-03T09:47:13.716Z,932.16
2018-07-03T09:48:13.641Z,932.16
2018-07-03T09:49:13.616Z,932.16
2018-07-03T09:50:13.550Z,932.18
2018-07-03T09:51:13.526Z,932.16
2018-07-03T09:52:13.471Z,932.20
2018-07-03T09:53:13.410Z,932.23
2018-07-03T09:54:13.391Z,932.20
2018-07-03T09:55:13.336Z,932.27
2018-07-03T09:56:13.283Z,932.24
2018-07-03T09:57:13.226Z,932.28
2018-07-03T09:58:13.206Z,932.24
2018-07-03T09:59:13.140Z,932.22
2018-07-03T10:00:13.114Z,932.23
2018-07-03T10:01:13.050Z,932.30
2018-07-03T10:02:13.007Z,932.32
2018-07-03T10:03:12.973Z,932.32
2018-07-03T10:04:12.916Z,932.31
2018-07-03T10:05:12.850Z,932.38
2018-07-03T10:06:12.830Z,932.35
2018-07-03T10:07:12.769Z,932.37
2018-07-03T10:08:12.719Z,932.36
2018-07-03T10:09:12.677Z,932.41
2018-07-03T10:10:12.649Z,932.42
2018-07-03T10:11:12.572Z,932.37
2018-07-03T10:12:12.551Z,932.36
2018-07-03T10:13:12.500Z,932.41
2018-07-03T10:14:12.440Z,932.36
2018-07-03T10:15:12.418Z,932.40
2018-07-03T10:16:12.361Z,932.39
2018-07-03T10:17:12.345Z,932.41
2018-07-03T10:18:12.267Z,932.38
2018-07-03T10:19:12.223Z,932.44
2018-07-03T10:20:12.187Z,932.43
2018-07-03T10:21:12.143Z,932.44
2018-07-03T10:22:12.073Z,932.46
2018-07-03T10:23:12.023Z,932.42
2018-07-03T10:24:12.004Z,932.46
2018-07-03T10:25:11.933Z,932.48
2018-07-03T10:26:11.906Z,932.50
2018-07-03T10:27:11.838Z,932.51
2018-07-03T10:28:11.804Z,932.48
2018-07-03T10:29:11.749Z,932.53
2018-07-03T10:30:11.727Z,932.56
2018-07-03T10:31:11.667Z,932.58
2018-07-03T10:32:11.624Z,932.72
2018-07-03T10:33:11.574Z,933.11
2018-07-03T10:34:11.518Z,933.37
2018-07-03T10:35:11.473Z,933.53
2018-07-03T10:36:11.458Z,933.10
2018-07-03T10:37:11.375Z,933.36
2018-07-03T10:38:11.344Z,933.62
2018-07-03T10:39:11.292Z,933.63
2018-07-03T10:40:11.255Z,933.68
2018-07-03T10:41:11.296Z,933.63
2018-07-03T10:42:11.190Z,933.65
2018-07-03T10:43:11.108Z,933.67
2018-07-03T10:44:11.103Z,933.69
2018-07-03T10:45:11.026Z,933.73
2018-07-03T10:46:10.994Z,933.75
2018-07-03T10:47:10.957Z,933.72
2018-07-03T10:48:10.926Z,933.77
2018-07-03T10:49:10.866Z,933.71
2018-07-03T10:50:10.822Z,933.71
2018-07-03T10:51:10.794Z,933.72
2018-07-03T10:52:10.753Z,933.73
2018-07-03T10:53:10.699Z,933.67
2018-07-03T10:54:10.748Z,933.72
2018-07-03T10:55:10.641Z,933.68
2018-07-03T10:56:10.587Z,933.65
2018-07-03T10:57:10.559Z,933.68
2018-07-03T10:58:10.524Z,933.67
2018-07-03T10:59:10.484Z,933.61
2018-07-03T11:00:10.417Z,933.61
2018-07-03T11:01:10.414Z,933.60
2018-07-03T11:02:10.373Z,933.64
2018-07-03T11:03:10.321Z,933.66
2018-07-03T11:04:10.303Z,933.64
2018-07-03T11:05:10.271Z,933.65
2018-07-03T11:06:10.216Z,933.66
2018-07-03T11:07:10.163Z,933.60
2018-07-03T11:08:10.131Z,933.61
2018-07-03T11:09:10.126Z,933.58
2018-07-03T11:10:10.067Z,933.52
2018-07-03T11:11:10.027Z,933.55
2018-07-03T11:12:09.983Z,933.53
2018-07-03T11:13:09.951Z,933.57
2018-07-03T11:14:09.996Z,933.60
2018-07-03T11:15:09.894Z,933.57
2018-07-03T11:16:09.868Z,933.53
2018-07-03T11:17:09.815Z,933.54
2018-07-03T11:18:09.789Z,933.53
2018-07-03T11:19:09.753Z,933.50
2018-07-03T11:20:09.838Z,933.60
2018-07-03T11:21:09.709Z,933.53
2018-07-03T11:22:09.632Z,933.40
2018-07-03T11:23:09.636Z,933.19
2018-07-03T11:24:09.571Z,933.13
2018-07-03T11:25:09.551Z,933.11
2018-07-03T11:26:09.516Z,933.10
2018-07-03T11:27:09.467Z,933.12
2018-07-03T11:28:09.413Z,933.14
2018-07-03T11:29:09.386Z,933.10
2018-07-03T11:30:09.353Z,933.15
2018-07-03T11:31:09.311Z,933.10
2018-07-03T11:32:09.254Z,933.14
2018-07-03T11:33:09.220Z,933.16
2018-07-03T11:34:09.186Z,933.18
2018-07-03T11:35:09.137Z,933.17
2018-07-03T11:36:09.097Z,933.14
2018-07-03T11:37:09.096Z,933.22
2018-07-03T11:38:09.011Z,933.20
2018-07-03T11:39:09.011Z,933.20
2018-07-03T11:40:08.944Z,933.21
2018-07-03T11:41:08.910Z,933.25
2018-07-03T11:42:08.849Z,933.24
2018-07-03T11:43:08.834Z,933.25
2018-07-03T11:44:08.764Z,933.21
2018-07-03T11:45:08.746Z,933.28
2018-07-03T11:46:08.684Z,933.23
2018-07-03T11:47:08.656Z,933.21
2018-07-03T11:48:08.607Z,933.28
2018-07-03T11:49:08.567Z,933.25
2018-07-03T11:50:08.540Z,933.24
2018-07-03T11:51:08.491Z,933.25
2018-07-03T11:52:08.444Z,933.27
2018-07-03T11:53:08.380Z,933.24
2018-07-03T11:54:08.338Z,933.28
2018-07-03T11:55:08.296Z,933.25
2018-07-03T11:56:08.289Z,933.30
2018-07-03T11:57:08.207Z,933.27
2018-07-03T11:58:08.164Z,933.33
2018-07-03T11:59:08.120Z,933.37
2018-07-03T12:00:08.080Z,933.36
2018-07-03T12:01:08.062Z,933.38
2018-07-03T12:02:07.996Z,933.35
2018-07-03T12:03:07.974Z,933.40
2018-07-03T12:04:07.933Z,933.37
2018-07-03T12:05:07.872Z,933.42
2018-07-03T12:06:07.852Z,933.37
2018-07-03T12:07:07.807Z,933.38
2018-07-03T12:08:07.738Z,933.41
2018-07-03T12:09:07.691Z,933.42
2018-07-03T12:10:07.648Z,933.39
2018-07-03T12:11:07.618Z,933.38
2018-07-03T12:12:07.589Z,933.37
2018-07-03T12:13:07.515Z,933.43
2018-07-03T12:14:07.479Z,933.46
2018-07-03T12:15:07.457Z,933.42
2018-07-03T12:16:07.391Z,933.39
2018-07-03T12:17:07.340Z,933.45
2018-07-03T12:18:07.311Z,933.40
2018-07-03T12:19:07.249Z,933.45
2018-07-03T12:20:07.206Z,933.44
2018-07-03T12:21:07.186Z,933.44
2018-07-03T12:22:07.119Z,933.47
2018-07-03T12:23:07.074Z,933.43
2018-07-03T12:24:07.062Z,933.46
2018-07-03T12:25:07.004Z,933.47
2018-07-03T12:26:06.948Z,933.47
2018-07-03T12:27:06.897Z,933.42
2018-07-03T12:28:06.862Z,933.47